Indian Head, Canada
Current Conditions -  °F | °C
As of 10:00 AM on Monday 22 Dec 2014 (Local Time) from CYQR Reporting Station
Haze Haze  
Wind Chill: 14°   Ceiling: 200
Heat Index: 23°   Visibility: 0.62mi
Dew Point: 23°   Wind: 8mph
Humidity: 100%   Direction: 350°N
Pressure: 29.64"   Gusts: NA
Location:  50.53°N, 103.67°W
Report Text: CYQR 221600Z 35007KT 5/8SM R13/3500V5000FT/U BR VV002 M05/M05 A2964 RMK FG8 VIS VRB 1/2-3/4 SLP070
Loading
Personal Weather Stations






























Interactive Weather Map New forecast layout! Learn more

10-Day Weather Forecast

Advertisements
Track Severe Weather on mobile